createdAt,value
2018-02-02T00:00:52.931Z,99.99
2018-02-02T00:01:53.055Z,99.99
2018-02-02T00:02:52.875Z,99.99
2018-02-02T00:03:52.961Z,99.99
2018-02-02T00:04:52.818Z,99.99
2018-02-02T00:05:52.973Z,99.99
2018-02-02T00:06:52.762Z,99.99
2018-02-02T00:07:52.736Z,99.99
2018-02-02T00:08:52.704Z,99.99
2018-02-02T00:09:52.792Z,99.99
2018-02-02T00:10:52.651Z,99.99
2018-02-02T00:11:52.806Z,99.99
2018-02-02T00:12:52.601Z,99.99
2018-02-02T00:13:52.714Z,99.99
2018-02-02T00:14:52.537Z,99.99
2018-02-02T00:15:52.624Z,99.99
2018-02-02T00:16:52.482Z,99.99
2018-02-02T00:17:52.640Z,99.99
2018-02-02T00:18:52.432Z,99.99
2018-02-02T00:19:52.546Z,99.99
2018-02-02T00:20:52.370Z,99.99
2018-02-02T00:21:52.456Z,99.99
2018-02-02T00:22:52.311Z,99.99
2018-02-02T00:23:52.470Z,99.99
2018-02-02T00:24:52.376Z,99.99
2018-02-02T00:25:52.243Z,99.99
2018-02-02T00:26:52.286Z,99.99
2018-02-02T00:27:52.170Z,99.99
2018-02-02T00:28:52.295Z,99.99
2018-02-02T00:29:52.120Z,99.99
2018-02-02T00:30:52.206Z,99.99
2018-02-02T00:31:52.064Z,99.99
2018-02-02T00:32:52.114Z,99.99
2018-02-02T00:33:52.006Z,99.99
2018-02-02T00:34:52.138Z,99.99
2018-02-02T00:35:51.953Z,99.99
2018-02-02T00:36:52.038Z,99.99
2018-02-02T00:37:51.895Z,99.99
2018-02-02T00:38:51.948Z,99.99
2018-02-02T00:39:51.838Z,99.99
2018-02-02T00:40:51.811Z,99.99
2018-02-02T00:41:51.780Z,99.99
2018-02-02T00:42:51.876Z,99.99
2018-02-02T00:43:51.727Z,99.99
2018-02-02T00:44:51.780Z,99.99
2018-02-02T00:45:51.668Z,99.99
2018-02-02T00:46:51.790Z,99.99
2018-02-02T00:47:51.613Z,99.99
2018-02-02T00:48:51.699Z,99.99
2018-02-02T00:49:51.558Z,99.99
2018-02-02T00:50:51.529Z,99.52
2018-02-02T00:51:51.496Z,99.05
2018-02-02T00:52:51.622Z,99.15
2018-02-02T00:53:51.438Z,99.05
2018-02-02T00:54:51.534Z,99.29
2018-02-02T00:55:51.387Z,99.01
2018-02-02T00:56:51.442Z,99.15
2018-02-02T00:57:51.334Z,99.24
2018-02-02T00:58:51.456Z,99.33
2018-02-02T00:59:51.274Z,99.33
2018-02-02T01:00:51.365Z,98.11
2018-02-02T01:01:51.218Z,98.20
2018-02-02T01:02:51.273Z,99.01
2018-02-02T01:03:51.161Z,98.49
2018-02-02T01:04:51.287Z,98.54
2018-02-02T01:05:51.102Z,99.15
2018-02-02T01:06:51.196Z,98.96
2018-02-02T01:07:51.054Z,99.20
2018-02-02T01:08:51.106Z,99.33
2018-02-02T01:09:51.112Z,99.29
2018-02-02T01:10:50.966Z,99.10
2018-02-02T01:11:51.022Z,98.77
2018-02-02T01:12:50.912Z,98.68
2018-02-02T01:13:50.933Z,98.44
2018-02-02T01:14:50.856Z,98.91
2018-02-02T01:15:50.825Z,98.44
2018-02-02T01:16:50.852Z,98.82
2018-02-02T01:17:50.773Z,99.20
2018-02-02T01:18:50.861Z,99.20
2018-02-02T01:19:50.714Z,99.39
2018-02-02T01:20:50.771Z,98.82
2018-02-02T01:21:50.661Z,99.01
2018-02-02T01:22:50.678Z,99.01
2018-02-02T01:23:50.604Z,99.01
2018-02-02T01:24:50.695Z,99.29
2018-02-02T01:25:50.550Z,99.01
2018-02-02T01:26:50.603Z,99.20
2018-02-02T01:27:50.493Z,98.44
2018-02-02T01:28:50.460Z,99.20
2018-02-02T01:29:50.436Z,98.72
2018-02-02T01:30:50.525Z,98.54
2018-02-02T01:31:50.378Z,99.20
2018-02-02T01:32:50.434Z,99.01
2018-02-02T01:33:50.324Z,99.01
2018-02-02T01:34:50.300Z,98.82
2018-02-02T01:35:50.350Z,99.10
2018-02-02T01:36:50.236Z,98.44
2018-02-02T01:37:50.260Z,98.72
2018-02-02T01:38:50.186Z,98.25
2018-02-02T01:39:50.153Z,99.10
2018-02-02T01:40:50.130Z,98.44
2018-02-02T01:41:50.182Z,99.20
2018-02-02T01:42:50.073Z,99.10
2018-02-02T01:43:50.091Z,99.01
2018-02-02T01:44:50.017Z,99.39
2018-02-02T01:45:49.986Z,98.63
2018-02-02T01:46:49.958Z,99.20
2018-02-02T01:47:50.015Z,98.44
2018-02-02T01:48:49.903Z,99.29
2018-02-02T01:49:49.927Z,99.01
2018-02-02T01:50:49.846Z,99.20
2018-02-02T01:51:49.821Z,99.20
2018-02-02T01:52:49.845Z,98.82
2018-02-02T01:53:49.767Z,99.01
2018-02-02T01:54:49.854Z,99.01
2018-02-02T01:55:49.708Z,99.58
2018-02-02T01:56:49.762Z,99.01
2018-02-02T01:57:49.654Z,99.20
2018-02-02T01:58:49.782Z,98.63
2018-02-02T01:59:49.595Z,99.01
2018-02-02T02:00:49.683Z,99.10
2018-02-02T02:01:49.542Z,98.72
2018-02-02T02:02:49.698Z,98.82
2018-02-02T02:03:49.483Z,99.29
2018-02-02T02:04:49.465Z,99.29
2018-02-02T02:05:49.433Z,99.58
2018-02-02T02:06:49.620Z,99.39
2018-02-02T02:07:49.419Z,99.29
2018-02-02T02:08:49.531Z,99.20
2018-02-02T02:09:49.333Z,99.10
2018-02-02T02:10:49.438Z,99.10
2018-02-02T02:11:49.268Z,99.01
2018-02-02T02:12:49.233Z,99.20
2018-02-02T02:13:49.204Z,99.29
2018-02-02T02:14:49.361Z,99.01
2018-02-02T02:15:49.151Z,99.29
2018-02-02T02:16:49.171Z,99.48
2018-02-02T02:17:49.092Z,99.20
2018-02-02T02:18:49.070Z,99.29
2018-02-02T02:19:49.086Z,99.01
2018-02-02T02:20:49.009Z,99.20
2018-02-02T02:21:49.098Z,98.54
2018-02-02T02:22:48.958Z,99.20
2018-02-02T02:23:49.006Z,99.29
2018-02-02T02:24:48.898Z,99.29
2018-02-02T02:25:49.942Z,98.91
2018-02-02T02:26:48.843Z,99.01
2018-02-02T02:27:48.930Z,99.39
2018-02-02T02:28:48.783Z,99.10
2018-02-02T02:29:48.760Z,99.20
2018-02-02T02:30:48.734Z,99.99
2018-02-02T02:31:48.748Z,99.29
2018-02-02T02:32:48.673Z,99.10
2018-02-02T02:33:48.760Z,99.10
2018-02-02T02:34:48.627Z,98.82
2018-02-02T02:35:48.671Z,99.58
2018-02-02T02:36:48.561Z,99.20
2018-02-02T02:37:48.581Z,99.10
2018-02-02T02:38:48.510Z,99.01
2018-02-02T02:39:48.596Z,99.10
2018-02-02T02:40:48.449Z,99.77
2018-02-02T02:41:48.502Z,99.86
2018-02-02T02:42:48.400Z,99.99
2018-02-02T02:43:48.412Z,99.99
2018-02-02T02:44:48.338Z,99.99
2018-02-02T02:45:48.424Z,99.99
2018-02-02T02:46:48.281Z,99.99
2018-02-02T02:47:48.334Z,99.99
2018-02-02T02:48:48.232Z,99.99
2018-02-02T02:49:48.244Z,99.99
2018-02-02T02:50:48.177Z,99.99
2018-02-02T02:51:48.258Z,99.99
2018-02-02T02:52:48.114Z,99.99
2018-02-02T02:53:48.170Z,99.99
2018-02-02T02:54:48.158Z,99.99
2018-02-02T02:55:48.077Z,99.99
2018-02-02T02:56:48.003Z,99.99
2018-02-02T02:57:47.978Z,99.99
2018-02-02T02:58:47.952Z,99.99
2018-02-02T02:59:47.998Z,99.99
2018-02-02T03:00:47.895Z,99.99
2018-02-02T03:01:47.908Z,99.99
2018-02-02T03:02:47.839Z,99.99
2018-02-02T03:03:47.808Z,99.99
2018-02-02T03:04:47.872Z,99.99
2018-02-02T03:05:47.754Z,99.99
2018-02-02T03:06:47.834Z,99.99
2018-02-02T03:07:47.696Z,99.99
2018-02-02T03:08:47.748Z,99.99
2018-02-02T03:09:47.751Z,99.99
2018-02-02T03:10:47.613Z,99.99
2018-02-02T03:11:47.662Z,99.99
2018-02-02T03:12:47.556Z,99.99
2018-02-02T03:13:47.572Z,99.99
2018-02-02T03:14:47.501Z,99.99
2018-02-02T03:15:47.466Z,99.99
2018-02-02T03:16:47.492Z,99.99
2018-02-02T03:17:47.416Z,99.99
2018-02-02T03:18:47.499Z,99.99
2018-02-02T03:19:47.359Z,99.99
2018-02-02T03:20:47.409Z,99.99
2018-02-02T03:21:47.301Z,99.99
2018-02-02T03:22:47.321Z,99.99
2018-02-02T03:23:47.244Z,99.99
2018-02-02T03:24:47.229Z,99.99
2018-02-02T03:25:47.237Z,99.99
2018-02-02T03:26:47.163Z,99.99
2018-02-02T03:27:47.145Z,99.99
2018-02-02T03:28:47.097Z,99.99
2018-02-02T03:29:47.159Z,99.99
2018-02-02T03:30:47.044Z,99.99
2018-02-02T03:31:47.017Z,99.99
2018-02-02T03:32:47.075Z,99.99
2018-02-02T03:33:46.956Z,99.99
2018-02-02T03:34:46.984Z,99.99
2018-02-02T03:35:46.907Z,99.99
2018-02-02T03:36:46.894Z,99.99
2018-02-02T03:37:46.852Z,99.99
2018-02-02T03:38:46.908Z,99.99
2018-02-02T03:39:46.782Z,99.99
2018-02-02T03:40:46.815Z,99.99
2018-02-02T03:41:46.727Z,99.99
2018-02-02T03:42:46.701Z,99.99
2018-02-02T03:43:46.676Z,99.99
2018-02-02T03:44:46.738Z,99.99
2018-02-02T03:45:46.621Z,99.99
2018-02-02T03:46:46.649Z,99.99
2018-02-02T03:47:46.560Z,99.99
2018-02-02T03:48:46.524Z,99.99
2018-02-02T03:49:46.511Z,99.99
2018-02-02T03:50:46.574Z,99.99
2018-02-02T03:51:46.444Z,99.99
2018-02-02T03:52:46.479Z,99.99
2018-02-02T03:53:46.386Z,99.99
2018-02-02T03:54:46.357Z,99.99
2018-02-02T03:55:46.396Z,99.99
2018-02-02T03:56:46.299Z,99.99
2018-02-02T03:57:46.304Z,99.99
2018-02-02T03:58:46.245Z,99.99
2018-02-02T03:59:46.213Z,99.99
2018-02-02T04:00:46.185Z,99.99
2018-02-02T04:01:46.229Z,99.99
2018-02-02T04:02:46.129Z,99.99
2018-02-02T04:03:46.136Z,99.99
2018-02-02T04:04:46.068Z,99.99
2018-02-02T04:05:47.073Z,99.99
2018-02-02T04:06:46.017Z,99.99
2018-02-02T04:07:46.063Z,99.99
2018-02-02T04:08:45.953Z,99.99
2018-02-02T04:09:45.930Z,99.99
2018-02-02T04:10:45.902Z,99.99
2018-02-02T04:11:45.984Z,99.99
2018-02-02T04:12:45.839Z,99.99
2018-02-02T04:13:45.894Z,99.99
2018-02-02T04:14:45.783Z,99.99
2018-02-02T04:15:46.830Z,99.99
2018-02-02T04:16:45.722Z,99.99
2018-02-02T04:17:45.816Z,99.99
2018-02-02T04:18:45.667Z,99.99
2018-02-02T04:19:45.726Z,99.99
2018-02-02T04:20:45.618Z,99.99
2018-02-02T04:21:45.632Z,99.99
2018-02-02T04:22:45.553Z,99.99
2018-02-02T04:23:45.646Z,99.99
2018-02-02T04:24:45.502Z,99.99
2018-02-02T04:25:45.470Z,99.99
2018-02-02T04:26:45.459Z,99.99
2018-02-02T04:27:45.412Z,99.99
2018-02-02T04:28:45.470Z,99.99
2018-02-02T04:29:45.353Z,99.99
2018-02-02T04:30:45.322Z,99.99
2018-02-02T04:31:45.300Z,99.99
2018-02-02T04:32:45.293Z,99.99
2018-02-02T04:33:45.241Z,99.99
2018-02-02T04:34:45.305Z,99.99
2018-02-02T04:35:45.180Z,99.99
2018-02-02T04:36:45.155Z,99.99
2018-02-02T04:37:45.127Z,99.99
2018-02-02T04:38:45.126Z,99.99
2018-02-02T04:39:45.068Z,99.99
2018-02-02T04:40:45.136Z,99.99
2018-02-02T04:41:45.013Z,99.99
2018-02-02T04:42:45.045Z,99.99
2018-02-02T04:43:44.956Z,99.99
2018-02-02T04:44:44.954Z,99.99
2018-02-02T04:45:44.900Z,99.99
2018-02-02T04:46:44.967Z,99.99
2018-02-02T04:47:44.843Z,99.99
2018-02-02T04:48:44.810Z,99.99
2018-02-02T04:49:44.883Z,99.99
2018-02-02T04:50:44.756Z,99.99
2018-02-02T04:51:44.796Z,99.99
2018-02-02T04:52:44.697Z,99.99
2018-02-02T04:53:44.673Z,99.99
2018-02-02T04:54:44.645Z,99.99
2018-02-02T04:55:45.636Z,99.99
2018-02-02T04:56:44.584Z,99.99
2018-02-02T04:57:44.622Z,99.99
2018-02-02T04:58:44.531Z,99.99
2018-02-02T04:59:44.498Z,99.99
2018-02-02T05:00:44.543Z,99.99
2018-02-02T05:01:44.446Z,99.99
2018-02-02T05:02:44.452Z,99.99
2018-02-02T05:03:44.387Z,99.99
2018-02-02T05:04:44.358Z,99.99
2018-02-02T05:05:44.328Z,99.99
2018-02-02T05:06:44.374Z,99.99
2018-02-02T05:07:44.274Z,99.99
2018-02-02T05:08:44.283Z,99.99
2018-02-02T05:09:44.217Z,99.99
2018-02-02T05:10:44.340Z,99.99
2018-02-02T05:11:44.159Z,99.99
2018-02-02T05:12:44.204Z,99.99
2018-02-02T05:13:44.105Z,99.99
2018-02-02T05:14:44.071Z,99.99
2018-02-02T05:15:44.049Z,99.99
2018-02-02T05:16:44.124Z,99.99
2018-02-02T05:17:43.986Z,99.99
2018-02-02T05:18:44.035Z,99.99
2018-02-02T05:19:43.932Z,99.99
2018-02-02T05:20:43.900Z,99.99
2018-02-02T05:21:43.956Z,99.99
2018-02-02T05:22:43.848Z,99.99
2018-02-02T05:23:43.866Z,99.99
2018-02-02T05:24:43.789Z,99.99
2018-02-02T05:25:43.769Z,99.99
2018-02-02T05:26:43.736Z,99.99
2018-02-02T05:27:43.782Z,99.99
2018-02-02T05:28:43.681Z,99.99
2018-02-02T05:29:43.695Z,99.99
2018-02-02T05:30:43.622Z,99.99
2018-02-02T05:31:43.592Z,99.99
2018-02-02T05:32:43.563Z,99.99
2018-02-02T05:33:43.616Z,99.99
2018-02-02T05:34:43.508Z,99.99
2018-02-02T05:35:43.528Z,99.99
2018-02-02T05:36:43.448Z,99.99
2018-02-02T05:37:43.424Z,99.99
2018-02-02T05:38:43.397Z,99.99
2018-02-02T05:39:43.448Z,99.99
2018-02-02T05:40:43.340Z,99.99
2018-02-02T05:41:43.356Z,99.99
2018-02-02T05:42:43.281Z,99.99
2018-02-02T05:43:43.267Z,99.99
2018-02-02T05:44:43.239Z,99.99
2018-02-02T05:45:44.202Z,99.99
2018-02-02T05:46:43.171Z,99.99
2018-02-02T05:47:43.191Z,99.99
2018-02-02T05:48:43.116Z,99.99
2018-02-02T05:49:43.096Z,99.99
2018-02-02T05:50:43.060Z,99.99
2018-02-02T05:51:43.113Z,99.99
2018-02-02T05:52:42.998Z,99.99
2018-02-02T05:53:43.125Z,99.99
2018-02-02T05:54:42.955Z,99.99
2018-02-02T05:55:43.911Z,99.99
2018-02-02T05:56:42.880Z,99.99
2018-02-02T05:57:42.863Z,99.99
2018-02-02T05:58:42.830Z,99.99
2018-02-02T05:59:42.803Z,99.99
2018-02-02T06:00:42.773Z,99.99
2018-02-02T06:01:42.750Z,99.99
2018-02-02T06:02:42.715Z,99.99
2018-02-02T06:03:42.696Z,99.99
2018-02-02T06:04:42.693Z,99.99
2018-02-02T06:05:43.631Z,99.99
2018-02-02T06:06:42.610Z,99.99
2018-02-02T06:07:42.575Z,99.99
2018-02-02T06:08:43.550Z,99.99
2018-02-02T06:09:42.521Z,99.99
2018-02-02T06:10:42.497Z,99.99
2018-02-02T06:11:42.463Z,99.99
2018-02-02T06:12:42.440Z,99.99
2018-02-02T06:13:42.408Z,99.99
2018-02-02T06:14:42.388Z,99.99
2018-02-02T06:15:42.348Z,99.99
2018-02-02T06:16:42.326Z,99.99
2018-02-02T06:17:42.298Z,99.99
2018-02-02T06:18:42.268Z,99.99
2018-02-02T06:19:42.239Z,99.99
2018-02-02T06:20:42.215Z,99.99
2018-02-02T06:21:42.186Z,99.99
2018-02-02T06:22:42.160Z,99.99
2018-02-02T06:23:42.132Z,99.99
2018-02-02T06:24:42.093Z,99.99
2018-02-02T06:25:42.075Z,99.99
2018-02-02T06:26:42.040Z,99.99
2018-02-02T06:27:42.019Z,99.99
2018-02-02T06:28:41.983Z,99.99
2018-02-02T06:29:41.968Z,99.99
2018-02-02T06:30:41.928Z,99.99
2018-02-02T06:31:41.907Z,99.99
2018-02-02T06:32:41.869Z,99.99
2018-02-02T06:33:41.850Z,99.99
2018-02-02T06:34:41.818Z,99.99
2018-02-02T06:35:41.789Z,99.99
2018-02-02T06:36:41.757Z,99.99
2018-02-02T06:37:41.740Z,99.99
2018-02-02T06:38:41.706Z,99.99
2018-02-02T06:39:41.682Z,99.99
2018-02-02T06:40:41.652Z,99.99
2018-02-02T06:41:41.621Z,99.99
2018-02-02T06:42:41.597Z,99.99
2018-02-02T06:43:41.563Z,99.99
2018-02-02T06:44:41.537Z,99.99
2018-02-02T06:45:41.510Z,99.99
2018-02-02T06:46:41.487Z,99.99
2018-02-02T06:47:41.449Z,99.99
2018-02-02T06:48:41.426Z,99.99
2018-02-02T06:49:41.397Z,99.99
2018-02-02T06:50:41.373Z,99.99
2018-02-02T06:51:41.339Z,99.99
2018-02-02T06:52:41.318Z,99.99
2018-02-02T06:53:41.280Z,99.99
2018-02-02T06:54:41.264Z,99.99
2018-02-02T06:55:41.225Z,99.99
2018-02-02T06:56:41.205Z,99.99
2018-02-02T06:57:41.167Z,99.99
2018-02-02T06:58:41.137Z,99.99
2018-02-02T06:59:41.120Z,99.99
2018-02-02T07:00:41.095Z,99.99
2018-02-02T07:01:41.056Z,99.99
2018-02-02T07:02:41.033Z,99.99
2018-02-02T07:03:41.006Z,99.99
2018-02-02T07:04:40.975Z,99.99
2018-02-02T07:05:40.944Z,99.99
2018-02-02T07:06:40.924Z,99.99
2018-02-02T07:07:40.889Z,99.99
2018-02-02T07:08:40.864Z,99.99
2018-02-02T07:09:40.834Z,99.99
2018-02-02T07:10:40.811Z,99.99
2018-02-02T07:11:40.776Z,99.99
2018-02-02T07:12:40.751Z,99.99
2018-02-02T07:13:40.722Z,99.99
2018-02-02T07:14:40.695Z,99.99
2018-02-02T07:15:40.666Z,99.99
2018-02-02T07:16:40.634Z,99.99
2018-02-02T07:17:40.618Z,99.99
2018-02-02T07:18:40.584Z,99.99
2018-02-02T07:19:40.555Z,99.99
2018-02-02T07:20:40.527Z,99.99
2018-02-02T07:21:40.502Z,99.99
2018-02-02T07:22:40.472Z,99.99
2018-02-02T07:23:40.443Z,99.99
2018-02-02T07:24:40.411Z,99.99
2018-02-02T07:25:41.391Z,99.99
2018-02-02T07:26:40.365Z,99.99
2018-02-02T07:27:40.333Z,99.99
2018-02-02T07:28:40.298Z,99.99
2018-02-02T07:29:40.281Z,99.99
2018-02-02T07:30:40.247Z,99.99
2018-02-02T07:31:40.220Z,99.99
2018-02-02T07:32:40.190Z,99.99
2018-02-02T07:33:40.159Z,99.99
2018-02-02T07:34:40.135Z,99.99
2018-02-02T07:35:41.102Z,99.99
2018-02-02T07:36:40.077Z,99.99
2018-02-02T07:37:40.052Z,99.99
2018-02-02T07:38:40.018Z,99.99
2018-02-02T07:39:39.994Z,99.99
2018-02-02T07:40:39.962Z,99.99
2018-02-02T07:41:39.944Z,99.99
2018-02-02T07:42:39.908Z,99.99
2018-02-02T07:43:39.886Z,99.99
2018-02-02T07:44:39.863Z,99.99
2018-02-02T07:45:39.831Z,99.99
2018-02-02T07:46:39.792Z,99.99
2018-02-02T07:47:39.783Z,99.99
2018-02-02T07:48:39.739Z,99.99
2018-02-02T07:49:39.717Z,99.99
2018-02-02T07:50:39.682Z,99.99
2018-02-02T07:51:39.661Z,99.99
2018-02-02T07:52:39.632Z,99.99
2018-02-02T07:53:39.600Z,99.99
2018-02-02T07:54:39.575Z,99.99
2018-02-02T07:55:39.548Z,99.99
2018-02-02T07:56:39.514Z,99.99
2018-02-02T07:57:39.487Z,99.99
2018-02-02T07:58:39.462Z,99.99
2018-02-02T07:59:39.434Z,99.99
2018-02-02T08:00:39.408Z,99.99
2018-02-02T08:01:39.384Z,99.99
2018-02-02T08:02:39.352Z,99.99
2018-02-02T08:03:39.322Z,99.99
2018-02-02T08:04:39.303Z,99.99
2018-02-02T08:05:39.271Z,99.99
2018-02-02T08:06:39.249Z,99.99
2018-02-02T08:07:39.206Z,99.99
2018-02-02T08:08:39.180Z,99.99
2018-02-02T08:09:39.160Z,99.99
2018-02-02T08:10:39.126Z,99.99
2018-02-02T08:11:39.099Z,99.99
2018-02-02T08:12:39.110Z,99.99
2018-02-02T08:13:39.044Z,99.99
2018-02-02T08:14:39.019Z,99.99
2018-02-02T08:15:38.986Z,99.99
2018-02-02T08:16:38.958Z,99.99
2018-02-02T08:17:38.932Z,99.99
2018-02-02T08:18:38.907Z,99.99
2018-02-02T08:19:38.880Z,99.99
2018-02-02T08:20:38.844Z,99.99
2018-02-02T08:21:38.826Z,99.99
2018-02-02T08:22:38.790Z,99.99
2018-02-02T08:23:38.772Z,99.99
2018-02-02T08:24:38.734Z,99.99
2018-02-02T08:25:38.714Z,99.99
2018-02-02T08:26:38.679Z,99.99
2018-02-02T08:27:38.652Z,99.99
2018-02-02T08:28:38.619Z,99.99
2018-02-02T08:29:38.596Z,99.99
2018-02-02T08:30:38.567Z,99.99
2018-02-02T08:31:38.540Z,99.99
2018-02-02T08:32:38.514Z,99.99
2018-02-02T08:33:38.484Z,99.99
2018-02-02T08:34:38.460Z,99.99
2018-02-02T08:35:38.422Z,99.99
2018-02-02T08:36:38.404Z,99.99
2018-02-02T08:37:38.372Z,99.99
2018-02-02T08:38:38.343Z,99.99
2018-02-02T08:39:38.320Z,99.99
2018-02-02T08:40:38.288Z,99.99
2018-02-02T08:41:38.262Z,99.99
2018-02-02T08:42:38.230Z,99.99
2018-02-02T08:43:38.215Z,99.99
2018-02-02T08:44:38.176Z,99.99
2018-02-02T08:45:39.151Z,99.99
2018-02-02T08:46:38.117Z,99.99
2018-02-02T08:47:38.102Z,99.99
2018-02-02T08:48:38.062Z,99.99
2018-02-02T08:49:38.038Z,99.99
2018-02-02T08:50:38.017Z,99.99
2018-02-02T08:51:37.977Z,99.99
2018-02-02T08:52:38.023Z,99.99
2018-02-02T08:53:37.923Z,99.99
2018-02-02T08:54:37.926Z,99.99
2018-02-02T08:55:37.979Z,99.99
2018-02-02T08:56:37.837Z,99.99
2018-02-02T08:57:37.815Z,99.99
2018-02-02T08:58:37.780Z,99.99
2018-02-02T08:59:37.761Z,99.99
2018-02-02T09:00:37.725Z,99.99
2018-02-02T09:01:37.702Z,99.99
2018-02-02T09:02:37.668Z,99.99
2018-02-02T09:03:37.646Z,99.99
2018-02-02T09:04:37.611Z,99.99
2018-02-02T09:05:38.589Z,99.99
2018-02-02T09:06:37.556Z,99.99
2018-02-02T09:07:37.536Z,99.99
2018-02-02T09:08:37.502Z,99.99
2018-02-02T09:09:37.477Z,99.99
2018-02-02T09:10:37.443Z,99.99
2018-02-02T09:11:37.424Z,99.99
2018-02-02T09:12:37.396Z,99.99
2018-02-02T09:13:37.361Z,99.99
2018-02-02T09:14:37.341Z,99.99
2018-02-02T09:15:37.305Z,99.99
2018-02-02T09:16:37.285Z,99.99
2018-02-02T09:17:37.253Z,99.99
2018-02-02T09:18:37.225Z,99.99
2018-02-02T09:19:37.200Z,99.99
2018-02-02T09:20:37.166Z,99.99
2018-02-02T09:21:37.146Z,99.99
2018-02-02T09:22:37.112Z,99.99
2018-02-02T09:23:37.085Z,99.99
2018-02-02T09:24:37.055Z,99.99
2018-02-02T09:25:38.019Z,99.99
2018-02-02T09:26:37.002Z,99.99
2018-02-02T09:27:37.014Z,99.99
2018-02-02T09:28:36.943Z,99.99
2018-02-02T09:29:36.919Z,99.99
2018-02-02T09:30:36.892Z,99.99
2018-02-02T09:31:36.860Z,99.99
2018-02-02T09:32:36.831Z,99.99
2018-02-02T09:33:36.798Z,99.99
2018-02-02T09:34:36.779Z,99.99
2018-02-02T09:35:36.749Z,99.99
2018-02-02T09:36:36.720Z,99.99
2018-02-02T09:37:36.690Z,99.99
2018-02-02T09:38:36.664Z,99.99
2018-02-02T09:39:36.635Z,99.99
2018-02-02T09:40:36.606Z,99.99
2018-02-02T09:41:36.578Z,99.99
2018-02-02T09:42:36.555Z,99.99
2018-02-02T09:43:36.531Z,99.99
2018-02-02T09:44:36.497Z,99.99
2018-02-02T09:45:36.467Z,99.99
2018-02-02T09:46:36.445Z,99.99
2018-02-02T09:47:36.411Z,99.99
2018-02-02T09:48:36.388Z,99.99
2018-02-02T09:49:36.354Z,99.99
2018-02-02T09:50:36.330Z,99.99
2018-02-02T09:51:36.299Z,99.99
2018-02-02T09:52:36.271Z,99.99
2018-02-02T09:53:36.243Z,99.99
2018-02-02T09:54:36.220Z,99.99
2018-02-02T09:55:36.184Z,99.99
2018-02-02T09:56:36.160Z,99.99
2018-02-02T09:57:36.132Z,99.99
2018-02-02T09:58:36.104Z,99.99
2018-02-02T09:59:36.072Z,99.99
2018-02-02T10:00:36.053Z,99.99
2018-02-02T10:01:36.021Z,99.99
2018-02-02T10:02:35.993Z,99.99
2018-02-02T10:03:35.966Z,99.99
2018-02-02T10:04:35.930Z,99.99
2018-02-02T10:05:36.910Z,99.99
2018-02-02T10:06:35.877Z,99.99
2018-02-02T10:07:35.856Z,99.99
2018-02-02T10:08:35.824Z,99.99
2018-02-02T10:09:35.800Z,99.99
2018-02-02T10:10:35.765Z,99.99
2018-02-02T10:11:35.760Z,99.99
2018-02-02T10:12:35.708Z,99.99
2018-02-02T10:13:35.688Z,99.99
2018-02-02T10:14:35.654Z,99.99
2018-02-02T10:15:35.629Z,99.99
2018-02-02T10:16:35.598Z,99.99
2018-02-02T10:17:35.632Z,99.99
2018-02-02T10:18:35.546Z,99.99
2018-02-02T10:19:35.520Z,99.99
2018-02-02T10:20:35.492Z,99.99
2018-02-02T10:21:35.466Z,99.99
2018-02-02T10:22:35.434Z,99.99
2018-02-02T10:23:35.413Z,99.99
2018-02-02T10:24:35.383Z,99.99
2018-02-02T10:25:35.350Z,99.99
2018-02-02T10:26:35.323Z,99.99
2018-02-02T10:27:35.292Z,99.99
2018-02-02T10:28:35.272Z,99.99
2018-02-02T10:29:35.264Z,99.99
2018-02-02T10:30:35.217Z,99.99
2018-02-02T10:31:35.179Z,99.99
2018-02-02T10:32:35.168Z,99.99
2018-02-02T10:33:35.129Z,99.99
2018-02-02T10:34:35.101Z,99.99
2018-02-02T10:35:36.070Z,99.99
2018-02-02T10:36:35.045Z,99.99
2018-02-02T10:37:35.022Z,99.99
2018-02-02T10:38:34.989Z,99.99
2018-02-02T10:39:34.969Z,99.99
2018-02-02T10:40:34.929Z,99.99
2018-02-02T10:41:34.914Z,99.99
2018-02-02T10:42:34.878Z,99.99
2018-02-02T10:43:34.851Z,99.99
2018-02-02T10:44:34.822Z,99.99
2018-02-02T10:45:34.798Z,99.99
2018-02-02T10:46:34.776Z,99.99
2018-02-02T10:47:34.742Z,99.99
2018-02-02T10:48:34.708Z,99.99
2018-02-02T10:49:34.689Z,99.99
2018-02-02T10:50:34.661Z,99.99
2018-02-02T10:51:34.632Z,99.99
2018-02-02T10:52:34.604Z,99.99
2018-02-02T10:53:34.573Z,99.99
2018-02-02T10:54:34.547Z,99.99
2018-02-02T10:55:34.518Z,99.99
2018-02-02T10:56:34.492Z,99.99
2018-02-02T10:57:34.457Z,99.99
2018-02-02T10:58:34.437Z,99.99
2018-02-02T10:59:34.403Z,99.99
2018-02-02T11:00:34.381Z,99.99
2018-02-02T11:01:34.349Z,99.99
2018-02-02T11:02:34.322Z,99.99
2018-02-02T11:03:34.291Z,99.99
2018-02-02T11:04:34.269Z,99.99
2018-02-02T11:05:34.239Z,99.99
2018-02-02T11:06:34.213Z,99.99
2018-02-02T11:07:34.184Z,99.99
2018-02-02T11:08:34.152Z,99.99
2018-02-02T11:09:34.130Z,99.99
2018-02-02T11:10:34.108Z,99.99
2018-02-02T11:11:34.067Z,99.99
2018-02-02T11:12:34.044Z,99.99
2018-02-02T11:13:34.014Z,99.99
2018-02-02T11:14:33.987Z,99.99
2018-02-02T11:15:33.959Z,99.99
2018-02-02T11:16:33.932Z,99.99
2018-02-02T11:17:33.903Z,99.99
2018-02-02T11:18:33.878Z,99.99
2018-02-02T11:19:33.850Z,99.99
2018-02-02T11:20:33.815Z,99.99
2018-02-02T11:21:33.798Z,99.99
2018-02-02T11:22:33.768Z,99.99
2018-02-02T11:23:33.738Z,99.99
2018-02-02T11:24:33.706Z,99.99
2018-02-02T11:25:33.681Z,99.99
2018-02-02T11:26:33.649Z,99.99
2018-02-02T11:27:33.631Z,99.99
2018-02-02T11:28:33.594Z,99.99
2018-02-02T11:29:33.575Z,99.99
2018-02-02T11:30:33.543Z,99.99
2018-02-02T11:31:33.513Z,99.99
2018-02-02T11:32:33.491Z,99.99
2018-02-02T11:33:33.465Z,99.99
2018-02-02T11:34:33.432Z,99.99
2018-02-02T11:35:34.401Z,99.99
2018-02-02T11:36:33.435Z,99.99
2018-02-02T11:37:33.350Z,99.99
2018-02-02T11:38:33.323Z,99.99
2018-02-02T11:39:33.297Z,99.99
2018-02-02T11:40:33.274Z,99.99
2018-02-02T11:41:33.235Z,99.99
2018-02-02T11:42:33.220Z,99.99
2018-02-02T11:43:33.179Z,99.99
2018-02-02T11:44:33.162Z,99.99
2018-02-02T11:45:33.124Z,99.99
2018-02-02T11:46:33.106Z,99.99
2018-02-02T11:47:33.070Z,99.99
2018-02-02T11:48:33.040Z,99.99
2018-02-02T11:49:33.017Z,99.99
2018-02-02T11:50:32.996Z,99.99
2018-02-02T11:51:32.957Z,99.99
2018-02-02T11:52:32.937Z,99.99
2018-02-02T11:53:32.910Z,99.99
2018-02-02T11:54:32.882Z,99.99
2018-02-02T11:55:32.851Z,99.99
2018-02-02T11:56:32.825Z,99.99
2018-02-02T11:57:32.796Z,99.99
2018-02-02T11:58:32.774Z,99.99
2018-02-02T11:59:32.740Z,99.99
2018-02-02T12:00:32.709Z,99.99
2018-02-02T12:01:32.693Z,99.99
2018-02-02T12:02:32.658Z,99.99
2018-02-02T12:03:32.635Z,99.99
2018-02-02T12:04:32.602Z,99.99
2018-02-02T12:05:33.575Z,99.99
2018-02-02T12:06:32.556Z,99.99
2018-02-02T12:07:32.520Z,99.99
2018-02-02T12:08:32.495Z,99.99
2018-02-02T12:09:32.459Z,99.99
2018-02-02T12:10:32.443Z,99.99
2018-02-02T12:11:32.408Z,99.99
2018-02-02T12:12:32.392Z,99.99
2018-02-02T12:13:32.356Z,99.99
2018-02-02T12:14:32.332Z,99.99
2018-02-02T12:15:32.296Z,99.99
2018-02-02T12:16:32.277Z,99.99
2018-02-02T12:17:32.241Z,99.99
2018-02-02T12:18:32.218Z,99.99
2018-02-02T12:19:32.194Z,99.99
2018-02-02T12:20:32.158Z,99.99
2018-02-02T12:21:32.138Z,99.99
2018-02-02T12:22:32.101Z,99.99
2018-02-02T12:23:32.080Z,99.99
2018-02-02T12:24:32.052Z,99.99
2018-02-02T12:25:33.035Z,99.99
2018-02-02T12:26:31.992Z,99.99
2018-02-02T12:27:31.978Z,99.99
2018-02-02T12:28:31.936Z,99.99
2018-02-02T12:29:31.915Z,99.99
2018-02-02T12:30:31.884Z,99.99
2018-02-02T12:31:31.865Z,99.99
2018-02-02T12:32:31.828Z,99.99
2018-02-02T12:33:31.811Z,99.99
2018-02-02T12:34:31.774Z,99.99
2018-02-02T12:35:31.744Z,99.99
2018-02-02T12:36:31.727Z,99.99
2018-02-02T12:37:31.689Z,99.99
2018-02-02T12:38:31.676Z,99.99
2018-02-02T12:39:31.637Z,99.99
2018-02-02T12:40:31.616Z,99.99
2018-02-02T12:41:31.579Z,99.99
2018-02-02T12:42:31.562Z,99.99
2018-02-02T12:43:31.529Z,99.99
2018-02-02T12:44:31.504Z,99.99
2018-02-02T12:45:31.478Z,99.99
2018-02-02T12:46:31.452Z,99.99
2018-02-02T12:47:31.420Z,99.99
2018-02-02T12:48:31.398Z,99.99
2018-02-02T12:49:31.366Z,99.99
2018-02-02T12:50:31.351Z,99.99
2018-02-02T12:51:31.315Z,99.99
2018-02-02T12:52:31.287Z,99.99